sensor_id;sensor_type;location;lat;lon;timestamp;pressure;altitude;pressure_sealevel;temperature
72054;BMP280;59918;51.280;7.950;2023-05-19T00:01:29;98920.28;;;6.18
72054;BMP280;59918;51.280;7.950;2023-05-19T00:03:56;98915.78;;;6.12
72054;BMP280;59918;51.280;7.950;2023-05-19T00:06:31;98922.94;;;6.09
72054;BMP280;59918;51.280;7.950;2023-05-19T00:09:05;98914.78;;;6.05
72054;BMP280;59918;51.280;7.950;2023-05-19T00:11:32;98912.97;;;5.98
72054;BMP280;59918;51.280;7.950;2023-05-19T00:14:01;98906.41;;;5.95
72054;BMP280;59918;51.280;7.950;2023-05-19T00:16:28;98917.22;;;5.89
72054;BMP280;59918;51.280;7.950;2023-05-19T00:18:54;98911.75;;;5.84
72054;BMP280;59918;51.280;7.950;2023-05-19T00:21:19;98912.06;;;5.82
72054;BMP280;59918;51.280;7.950;2023-05-19T00:23:50;98916.50;;;5.80
72054;BMP280;59918;51.280;7.950;2023-05-19T00:26:15;98905.94;;;5.75
72054;BMP280;59918;51.280;7.950;2023-05-19T00:28:41;98901.78;;;5.74
72054;BMP280;59918;51.280;7.950;2023-05-19T00:31:06;98907.03;;;5.72
72054;BMP280;59918;51.280;7.950;2023-05-19T00:33:32;98897.91;;;5.70
72054;BMP280;59918;51.280;7.950;2023-05-19T00:36:01;98903.78;;;5.70
72054;BMP280;59918;51.280;7.950;2023-05-19T00:38:27;98902.63;;;5.65
72054;BMP280;59918;51.280;7.950;2023-05-19T00:40:52;98910.56;;;5.62
72054;BMP280;59918;51.280;7.950;2023-05-19T00:43:17;98907.53;;;5.58
72054;BMP280;59918;51.280;7.950;2023-05-19T00:45:42;98899.88;;;5.58
72054;BMP280;59918;51.280;7.950;2023-05-19T00:48:08;98907.00;;;5.55
72054;BMP280;59918;51.280;7.950;2023-05-19T00:50:37;98901.53;;;5.50
72054;BMP280;59918;51.280;7.950;2023-05-19T00:53:02;98906.13;;;5.46
72054;BMP280;59918;51.280;7.950;2023-05-19T00:55:30;98906.41;;;5.43
72054;BMP280;59918;51.280;7.950;2023-05-19T00:57:56;98909.41;;;5.39
72054;BMP280;59918;51.280;7.950;2023-05-19T01:00:31;98900.31;;;5.37
72054;BMP280;59918;51.280;7.950;2023-05-19T01:03:09;98916.19;;;5.31
72054;BMP280;59918;51.280;7.950;2023-05-19T01:05:41;98907.88;;;5.29
72054;BMP280;59918;51.280;7.950;2023-05-19T01:08:07;98908.94;;;5.26
72054;BMP280;59918;51.280;7.950;2023-05-19T01:10:33;98911.66;;;5.25
72054;BMP280;59918;51.280;7.950;2023-05-19T01:13:02;98902.53;;;5.22
72054;BMP280;59918;51.280;7.950;2023-05-19T01:15:28;98907.41;;;5.16
72054;BMP280;59918;51.280;7.950;2023-05-19T01:18:14;98896.03;;;5.10
72054;BMP280;59918;51.280;7.950;2023-05-19T01:20:50;98903.19;;;5.07
72054;BMP280;59918;51.280;7.950;2023-05-19T01:23:51;98899.75;;;4.99
72054;BMP280;59918;51.280;7.950;2023-05-19T01:26:58;98903.66;;;4.93
72054;BMP280;59918;51.280;7.950;2023-05-19T01:29:28;98910.81;;;4.90
72054;BMP280;59918;51.280;7.950;2023-05-19T01:32:01;98895.78;;;4.87
72054;BMP280;59918;51.280;7.950;2023-05-19T01:34:29;98896.88;;;4.84
72054;BMP280;59918;51.280;7.950;2023-05-19T01:36:56;98896.88;;;4.84
72054;BMP280;59918;51.280;7.950;2023-05-19T01:39:28;98897.97;;;4.82
72054;BMP280;59918;51.280;7.950;2023-05-19T01:41:53;98898.38;;;4.77
72054;BMP280;59918;51.280;7.950;2023-05-19T01:44:19;98905.22;;;4.77
72054;BMP280;59918;51.280;7.950;2023-05-19T01:46:44;98901.22;;;4.74
72054;BMP280;59918;51.280;7.950;2023-05-19T01:49:09;98900.44;;;4.74
72054;BMP280;59918;51.280;7.950;2023-05-19T01:51:39;98896.91;;;4.75
72054;BMP280;59918;51.280;7.950;2023-05-19T01:54:04;98899.91;;;4.71
72054;BMP280;59918;51.280;7.950;2023-05-19T02:05:21;98894.84;;;4.61
72054;BMP280;59918;51.280;7.950;2023-05-19T02:10:40;98891.28;;;4.54
72054;BMP280;59918;51.280;7.950;2023-05-19T02:13:09;98887.09;;;4.53
72054;BMP280;59918;51.280;7.950;2023-05-19T02:15:39;98886.31;;;4.53
72054;BMP280;59918;51.280;7.950;2023-05-19T02:18:08;98889.94;;;4.50
72054;BMP280;59918;51.280;7.950;2023-05-19T02:20:39;98883.53;;;4.46
72054;BMP280;59918;51.280;7.950;2023-05-19T02:23:04;98893.19;;;4.43
72054;BMP280;59918;51.280;7.950;2023-05-19T02:25:30;98885.69;;;4.41
72054;BMP280;59918;51.280;7.950;2023-05-19T02:27:56;98890.78;;;4.41
72054;BMP280;59918;51.280;7.950;2023-05-19T02:30:25;98893.59;;;4.38
72054;BMP280;59918;51.280;7.950;2023-05-19T02:32:50;98898.97;;;4.35
72054;BMP280;59918;51.280;7.950;2023-05-19T02:35:16;98900.72;;;4.35
72054;BMP280;59918;51.280;7.950;2023-05-19T02:37:41;98895.09;;;4.32
72054;BMP280;59918;51.280;7.950;2023-05-19T02:40:07;98890.13;;;4.30
72054;BMP280;59918;51.280;7.950;2023-05-19T02:42:32;98886.13;;;4.28
72054;BMP280;59918;51.280;7.950;2023-05-19T02:45:04;98891.75;;;4.31
72054;BMP280;59918;51.280;7.950;2023-05-19T02:47:29;98889.47;;;4.28
72054;BMP280;59918;51.280;7.950;2023-05-19T02:49:54;98887.22;;;4.25
72054;BMP280;59918;51.280;7.950;2023-05-19T02:52:19;98884.94;;;4.22
72054;BMP280;59918;51.280;7.950;2023-05-19T02:54:45;98887.47;;;4.22
72054;BMP280;59918;51.280;7.950;2023-05-19T02:57:13;98890.16;;;4.21
72054;BMP280;59918;51.280;7.950;2023-05-19T02:59:38;98886.94;;;4.19
72054;BMP280;59918;51.280;7.950;2023-05-19T03:02:03;98882.28;;;4.14
72054;BMP280;59918;51.280;7.950;2023-05-19T03:04:29;98879.88;;;4.13
72054;BMP280;59918;51.280;7.950;2023-05-19T03:06:54;98883.63;;;4.09
72054;BMP280;59918;51.280;7.950;2023-05-19T03:09:19;98881.38;;;4.06
72054;BMP280;59918;51.280;7.950;2023-05-19T03:11:45;98875.50;;;4.05
72054;BMP280;59918;51.280;7.950;2023-05-19T03:14:13;98880.59;;;4.05
72054;BMP280;59918;51.280;7.950;2023-05-19T03:16:39;98878.44;;;4.01
72054;BMP280;59918;51.280;7.950;2023-05-19T03:19:04;98885.25;;;4.00
72054;BMP280;59918;51.280;7.950;2023-05-19T03:21:30;98886.34;;;3.98
72054;BMP280;59918;51.280;7.950;2023-05-19T03:23:55;98879.81;;;3.96
72054;BMP280;59918;51.280;7.950;2023-05-19T03:26:20;98890.25;;;3.93
72054;BMP280;59918;51.280;7.950;2023-05-19T03:28:45;98872.72;;;3.90
72054;BMP280;59918;51.280;7.950;2023-05-19T03:31:17;98874.19;;;3.92
72054;BMP280;59918;51.280;7.950;2023-05-19T03:33:42;98872.84;;;3.88
72054;BMP280;59918;51.280;7.950;2023-05-19T03:36:07;98870.16;;;3.90
72054;BMP280;59918;51.280;7.950;2023-05-19T03:38:32;98868.56;;;3.89
72054;BMP280;59918;51.280;7.950;2023-05-19T03:41:03;98867.47;;;3.91
72054;BMP280;59918;51.280;7.950;2023-05-19T03:43:29;98882.91;;;3.90
72054;BMP280;59918;51.280;7.950;2023-05-19T03:45:55;98872.72;;;3.90
72054;BMP280;59918;51.280;7.950;2023-05-19T03:48:20;98881.94;;;3.91
72054;BMP280;59918;51.280;7.950;2023-05-19T03:50:45;98876.84;;;3.91
72054;BMP280;59918;51.280;7.950;2023-05-19T03:53:13;98876.72;;;3.92
72054;BMP280;59918;51.280;7.950;2023-05-19T03:55:39;98879.25;;;3.92
72054;BMP280;59918;51.280;7.950;2023-05-19T03:58:04;98877.66;;;3.91
72054;BMP280;59918;51.280;7.950;2023-05-19T04:00:29;98888.66;;;3.92
72054;BMP280;59918;51.280;7.950;2023-05-19T04:02:55;98886.25;;;3.90
72054;BMP280;59918;51.280;7.950;2023-05-19T04:05:20;98889.56;;;3.91
72054;BMP280;59918;51.280;7.950;2023-05-19T04:07:49;98883.81;;;3.89
72054;BMP280;59918;51.280;7.950;2023-05-19T04:10:15;98892.00;;;3.92
72054;BMP280;59918;51.280;7.950;2023-05-19T04:12:40;98892.00;;;3.92
72054;BMP280;59918;51.280;7.950;2023-05-19T04:15:06;98897.75;;;3.94
72054;BMP280;59918;51.280;7.950;2023-05-19T04:17:31;98884.06;;;3.95
72054;BMP280;59918;51.280;7.950;2023-05-19T04:19:56;98892.38;;;3.97
72054;BMP280;59918;51.280;7.950;2023-05-19T04:22:22;98893.69;;;4.01
72054;BMP280;59918;51.280;7.950;2023-05-19T04:24:50;98890.59;;;4.07
72054;BMP280;59918;51.280;7.950;2023-05-19T04:27:15;98883.38;;;4.12
72054;BMP280;59918;51.280;7.950;2023-05-19T04:29:40;98886.44;;;4.15
72054;BMP280;59918;51.280;7.950;2023-05-19T04:32:06;98885.06;;;4.21
72054;BMP280;59918;51.280;7.950;2023-05-19T04:34:32;98884.50;;;4.27
72054;BMP280;59918;51.280;7.950;2023-05-19T04:36:58;98894.16;;;4.33
72054;BMP280;59918;51.280;7.950;2023-05-19T04:39:26;98886.09;;;4.37
72054;BMP280;59918;51.280;7.950;2023-05-19T04:41:51;98887.31;;;4.42
72054;BMP280;59918;51.280;7.950;2023-05-19T04:44:17;98882.69;;;4.46
72054;BMP280;59918;51.280;7.950;2023-05-19T04:46:42;98881.22;;;4.53
72054;BMP280;59918;51.280;7.950;2023-05-19T04:49:07;98885.88;;;4.57
72054;BMP280;59918;51.280;7.950;2023-05-19T04:51:40;98888.66;;;4.64
72054;BMP280;59918;51.280;7.950;2023-05-19T04:54:09;98883.00;;;4.70
72054;BMP280;59918;51.280;7.950;2023-05-19T04:56:34;98878.81;;;4.78
72054;BMP280;59918;51.280;7.950;2023-05-19T04:59:03;98878.72;;;4.87
72054;BMP280;59918;51.280;7.950;2023-05-19T05:01:28;98883.44;;;4.92
72054;BMP280;59918;51.280;7.950;2023-05-19T05:03:54;98883.66;;;4.98
72054;BMP280;59918;51.280;7.950;2023-05-19T05:06:20;98877.03;;;5.05
72054;BMP280;59918;51.280;7.950;2023-05-19T05:08:45;98874.41;;;5.14
72054;BMP280;59918;51.280;7.950;2023-05-19T05:11:10;98875.31;;;5.23
72054;BMP280;59918;51.280;7.950;2023-05-19T05:13:39;98873.31;;;5.34
72054;BMP280;59918;51.280;7.950;2023-05-19T05:16:05;98869.91;;;5.43
72054;BMP280;59918;51.280;7.950;2023-05-19T05:18:32;98876.53;;;5.53
72054;BMP280;59918;51.280;7.950;2023-05-19T05:20:57;98873.91;;;5.63
72054;BMP280;59918;51.280;7.950;2023-05-19T05:23:23;98881.38;;;5.74
72054;BMP280;59918;51.280;7.950;2023-05-19T05:25:51;98876.00;;;5.84
72054;BMP280;59918;51.280;7.950;2023-05-19T05:28:17;98882.63;;;5.95
72054;BMP280;59918;51.280;7.950;2023-05-19T05:30:42;98885.59;;;6.08
72054;BMP280;59918;51.280;7.950;2023-05-19T05:33:08;98883.59;;;6.19
72054;BMP280;59918;51.280;7.950;2023-05-19T05:35:33;98888.41;;;6.30
72054;BMP280;59918;51.280;7.950;2023-05-19T05:37:58;98888.31;;;6.39
72054;BMP280;59918;51.280;7.950;2023-05-19T05:40:29;98891.41;;;6.51
72054;BMP280;59918;51.280;7.950;2023-05-19T05:42:55;98891.00;;;6.63
72054;BMP280;59918;51.280;7.950;2023-05-19T05:45:21;98881.94;;;6.76
72054;BMP280;59918;51.280;7.950;2023-05-19T05:47:54;98876.88;;;6.92
72054;BMP280;59918;51.280;7.950;2023-05-19T05:50:19;98877.72;;;7.08
72054;BMP280;59918;51.280;7.950;2023-05-19T05:52:46;98878.88;;;7.22
72054;BMP280;59918;51.280;7.950;2023-05-19T05:55:12;98886.56;;;7.37
72054;BMP280;59918;51.280;7.950;2023-05-19T05:57:40;98868.81;;;7.52
72054;BMP280;59918;51.280;7.950;2023-05-19T06:00:07;98866.59;;;7.64
72054;BMP280;59918;51.280;7.950;2023-05-19T06:02:32;98868.34;;;7.80
72054;BMP280;59918;51.280;7.950;2023-05-19T06:04:57;98862.56;;;7.94
72054;BMP280;59918;51.280;7.950;2023-05-19T06:07:22;98864.97;;;8.11
72054;BMP280;59918;51.280;7.950;2023-05-19T06:09:48;98861.59;;;8.26
72054;BMP280;59918;51.280;7.950;2023-05-19T06:12:16;98858.00;;;8.43
72054;BMP280;59918;51.280;7.950;2023-05-19T06:14:41;98861.28;;;8.59
72054;BMP280;59918;51.280;7.950;2023-05-19T06:17:06;98860.28;;;8.76
72054;BMP280;59918;51.280;7.950;2023-05-19T06:19:32;98849.94;;;8.92
72054;BMP280;59918;51.280;7.950;2023-05-19T06:21:57;98858.31;;;9.08
72054;BMP280;59918;51.280;7.950;2023-05-19T06:24:22;98852.78;;;9.27
72054;BMP280;59918;51.280;7.950;2023-05-19T06:26:53;98852.28;;;9.45
72054;BMP280;59918;51.280;7.950;2023-05-19T06:29:18;98850.59;;;9.60
72054;BMP280;59918;51.280;7.950;2023-05-19T06:31:44;98855.25;;;9.79
72054;BMP280;59918;51.280;7.950;2023-05-19T06:34:09;98849.47;;;9.99
72054;BMP280;59918;51.280;7.950;2023-05-19T06:36:34;98850.38;;;10.20
72054;BMP280;59918;51.280;7.950;2023-05-19T06:38:59;98848.09;;;10.40
72054;BMP280;59918;51.280;7.950;2023-05-19T06:41:28;98845.41;;;10.62
72054;BMP280;59918;51.280;7.950;2023-05-19T06:43:53;98842.47;;;10.79
72054;BMP280;59918;51.280;7.950;2023-05-19T06:46:18;98834.34;;;10.96
72054;BMP280;59918;51.280;7.950;2023-05-19T06:48:43;98841.47;;;11.15
72054;BMP280;59918;51.280;7.950;2023-05-19T06:51:09;98829.16;;;11.31
72054;BMP280;59918;51.280;7.950;2023-05-19T06:53:41;98824.22;;;11.51
72054;BMP280;59918;51.280;7.950;2023-05-19T06:56:06;98824.94;;;11.66
72054;BMP280;59918;51.280;7.950;2023-05-19T06:58:32;98827.25;;;11.81
72054;BMP280;59918;51.280;7.950;2023-05-19T07:00:57;98833.69;;;11.98
72054;BMP280;59918;51.280;7.950;2023-05-19T07:03:22;98822.91;;;12.15
72054;BMP280;59918;51.280;7.950;2023-05-19T07:05:57;98823.78;;;12.29
72054;BMP280;59918;51.280;7.950;2023-05-19T07:08:22;98823.66;;;12.43
72054;BMP280;59918;51.280;7.950;2023-05-19T07:10:47;98819.38;;;12.56
72054;BMP280;59918;51.280;7.950;2023-05-19T07:13:18;98823.59;;;12.70
72054;BMP280;59918;51.280;7.950;2023-05-19T07:15:43;98826.88;;;12.85
72054;BMP280;59918;51.280;7.950;2023-05-19T07:18:09;98825.31;;;12.97
72054;BMP280;59918;51.280;7.950;2023-05-19T07:20:34;98828.34;;;13.13
72054;BMP280;59918;51.280;7.950;2023-05-19T07:22:59;98812.06;;;13.25
72054;BMP280;59918;51.280;7.950;2023-05-19T07:25:27;98815.69;;;13.37
72054;BMP280;59918;51.280;7.950;2023-05-19T07:27:52;98804.56;;;13.49
72054;BMP280;59918;51.280;7.950;2023-05-19T07:30:18;98809.31;;;13.65
72054;BMP280;59918;51.280;7.950;2023-05-19T07:32:43;98810.13;;;13.85
72054;BMP280;59918;51.280;7.950;2023-05-19T07:35:08;98808.13;;;14.00
72054;BMP280;59918;51.280;7.950;2023-05-19T07:37:33;98814.28;;;14.18
72054;BMP280;59918;51.280;7.950;2023-05-19T07:39:59;98817.19;;;14.41
72054;BMP280;59918;51.280;7.950;2023-05-19T07:42:30;98811.16;;;14.59
72054;BMP280;59918;51.280;7.950;2023-05-19T07:44:55;98803.13;;;14.80
72054;BMP280;59918;51.280;7.950;2023-05-19T07:47:20;98809.41;;;14.97
72054;BMP280;59918;51.280;7.950;2023-05-19T07:49:48;98804.56;;;15.13
72054;BMP280;59918;51.280;7.950;2023-05-19T07:52:16;98802.81;;;15.38
72054;BMP280;59918;51.280;7.950;2023-05-19T07:54:41;98808.81;;;15.63
72054;BMP280;59918;51.280;7.950;2023-05-19T07:57:06;98798.09;;;15.77
72054;BMP280;59918;51.280;7.950;2023-05-19T07:59:31;98798.16;;;15.95
72054;BMP280;59918;51.280;7.950;2023-05-19T08:01:57;98797.19;;;16.13
72054;BMP280;59918;51.280;7.950;2023-05-19T08:04:22;98796.41;;;16.31
72054;BMP280;59918;51.280;7.950;2023-05-19T08:06:47;98796.47;;;16.42
72054;BMP280;59918;51.280;7.950;2023-05-19T08:09:19;98796.06;;;16.63
72054;BMP280;59918;51.280;7.950;2023-05-19T08:11:44;98790.38;;;16.83
72054;BMP280;59918;51.280;7.950;2023-05-19T08:14:09;98795.53;;;17.01
72054;BMP280;59918;51.280;7.950;2023-05-19T08:16:34;98796.53;;;17.18
72054;BMP280;59918;51.280;7.950;2023-05-19T08:19:06;98780.75;;;17.31
72054;BMP280;59918;51.280;7.950;2023-05-19T08:21:31;98783.84;;;17.51
72054;BMP280;59918;51.280;7.950;2023-05-19T08:23:56;98784.84;;;17.50
72054;BMP280;59918;51.280;7.950;2023-05-19T08:26:21;98777.75;;;17.56
72054;BMP280;59918;51.280;7.950;2023-05-19T08:28:47;98780.38;;;17.68
72054;BMP280;59918;51.280;7.950;2023-05-19T08:31:20;98775.06;;;17.74
72054;BMP280;59918;51.280;7.950;2023-05-19T08:33:53;98778.31;;;17.81
72054;BMP280;59918;51.280;7.950;2023-05-19T08:36:18;98774.81;;;17.98
72054;BMP280;59918;51.280;7.950;2023-05-19T08:38:44;98771.63;;;18.30
72054;BMP280;59918;51.280;7.950;2023-05-19T08:41:09;98768.94;;;18.76
72054;BMP280;59918;51.280;7.950;2023-05-19T08:43:35;98767.47;;;19.07
72054;BMP280;59918;51.280;7.950;2023-05-19T08:46:03;98762.69;;;19.04
72054;BMP280;59918;51.280;7.950;2023-05-19T08:48:29;98751.25;;;19.05
72054;BMP280;59918;51.280;7.950;2023-05-19T08:51:19;98749.63;;;19.16
72054;BMP280;59918;51.280;7.950;2023-05-19T08:53:52;98750.09;;;19.29
72054;BMP280;59918;51.280;7.950;2023-05-19T08:56:21;98747.44;;;19.40
72054;BMP280;59918;51.280;7.950;2023-05-19T08:58:51;98739.91;;;19.60
72054;BMP280;59918;51.280;7.950;2023-05-19T09:01:18;98748.34;;;19.67
72054;BMP280;59918;51.280;7.950;2023-05-19T09:03:45;98739.84;;;19.72
72054;BMP280;59918;51.280;7.950;2023-05-19T09:06:11;98738.41;;;19.80
72054;BMP280;59918;51.280;7.950;2023-05-19T09:08:40;98737.53;;;19.91
72054;BMP280;59918;51.280;7.950;2023-05-19T09:11:06;98731.13;;;19.82
72054;BMP280;59918;51.280;7.950;2023-05-19T09:13:32;98730.31;;;19.98
72054;BMP280;59918;51.280;7.950;2023-05-19T09:15:58;98730.34;;;20.19
72054;BMP280;59918;51.280;7.950;2023-05-19T09:18:30;98720.88;;;20.35
72054;BMP280;59918;51.280;7.950;2023-05-19T09:20:59;98715.41;;;20.36
72054;BMP280;59918;51.280;7.950;2023-05-19T09:23:30;98718.81;;;20.37
72054;BMP280;59918;51.280;7.950;2023-05-19T09:25:55;98719.47;;;20.48
72054;BMP280;59918;51.280;7.950;2023-05-19T09:28:31;98720.72;;;20.67
72054;BMP280;59918;51.280;7.950;2023-05-19T09:31:07;98711.47;;;20.81
72054;BMP280;59918;51.280;7.950;2023-05-19T09:33:43;98711.69;;;21.01
72054;BMP280;59918;51.280;7.950;2023-05-19T09:36:08;98706.91;;;21.24
72054;BMP280;59918;51.280;7.950;2023-05-19T09:38:35;98705.81;;;21.46
72054;BMP280;59918;51.280;7.950;2023-05-19T09:41:05;98699.94;;;21.65
72054;BMP280;59918;51.280;7.950;2023-05-19T09:43:32;98703.94;;;21.83
72054;BMP280;59918;51.280;7.950;2023-05-19T09:46:08;98698.03;;;21.97
72054;BMP280;59918;51.280;7.950;2023-05-19T09:48:34;98698.38;;;22.15
72054;BMP280;59918;51.280;7.950;2023-05-19T09:51:06;98687.13;;;22.20
72054;BMP280;59918;51.280;7.950;2023-05-19T09:53:33;98693.25;;;22.40
72054;BMP280;59918;51.280;7.950;2023-05-19T09:56:03;98692.78;;;22.63
72054;BMP280;59918;51.280;7.950;2023-05-19T09:58:33;98676.34;;;22.92
72054;BMP280;59918;51.280;7.950;2023-05-19T10:00:58;98691.81;;;23.28
72054;BMP280;59918;51.280;7.950;2023-05-19T10:03:28;98687.66;;;23.56
72054;BMP280;59918;51.280;7.950;2023-05-19T10:05:54;98692.91;;;23.61
72054;BMP280;59918;51.280;7.950;2023-05-19T10:08:21;98681.25;;;23.97
72054;BMP280;59918;51.280;7.950;2023-05-19T10:10:46;98675.44;;;24.62
72054;BMP280;59918;51.280;7.950;2023-05-19T10:13:17;98675.38;;;25.15
72054;BMP280;59918;51.280;7.950;2023-05-19T10:15:45;98675.00;;;25.60
72054;BMP280;59918;51.280;7.950;2023-05-19T10:18:19;98671.72;;;25.96
72054;BMP280;59918;51.280;7.950;2023-05-19T10:20:45;98668.28;;;26.18
72054;BMP280;59918;51.280;7.950;2023-05-19T10:23:15;98665.00;;;26.49
72054;BMP280;59918;51.280;7.950;2023-05-19T10:25:41;98676.56;;;26.72
72054;BMP280;59918;51.280;7.950;2023-05-19T10:28:17;98664.47;;;27.20
72054;BMP280;59918;51.280;7.950;2023-05-19T10:30:46;98661.00;;;27.07
72054;BMP280;59918;51.280;7.950;2023-05-19T10:33:16;98657.75;;;26.96
72054;BMP280;59918;51.280;7.950;2023-05-19T10:41:45;98648.78;;;28.00
72054;BMP280;59918;51.280;7.950;2023-05-19T10:46:39;98640.81;;;28.97
72054;BMP280;59918;51.280;7.950;2023-05-19T10:49:07;98636.59;;;29.39
72054;BMP280;59918;51.280;7.950;2023-05-19T10:51:32;98641.91;;;30.08
72054;BMP280;59918;51.280;7.950;2023-05-19T10:54:06;98627.78;;;30.46
72054;BMP280;59918;51.280;7.950;2023-05-19T10:56:38;98636.06;;;30.53
72054;BMP280;59918;51.280;7.950;2023-05-19T10:59:31;98639.66;;;30.74
72054;BMP280;59918;51.280;7.950;2023-05-19T11:02:07;98630.94;;;30.82
72054;BMP280;59918;51.280;7.950;2023-05-19T11:04:49;98626.34;;;31.41
72054;BMP280;59918;51.280;7.950;2023-05-19T11:07:16;98612.25;;;31.86
72054;BMP280;59918;51.280;7.950;2023-05-19T11:09:41;98614.84;;;32.23
72054;BMP280;59918;51.280;7.950;2023-05-19T11:12:07;98619.59;;;32.17
72054;BMP280;59918;51.280;7.950;2023-05-19T11:14:35;98616.78;;;31.77
72054;BMP280;59918;51.280;7.950;2023-05-19T11:17:01;98609.97;;;30.97
72054;BMP280;59918;51.280;7.950;2023-05-19T11:21:53;98606.66;;;32.56
72054;BMP280;59918;51.280;7.950;2023-05-19T11:24:44;98601.97;;;33.38
72054;BMP280;59918;51.280;7.950;2023-05-19T11:27:31;98598.88;;;33.95
72054;BMP280;59918;51.280;7.950;2023-05-19T11:30:00;98588.59;;;34.44
72054;BMP280;59918;51.280;7.950;2023-05-19T11:32:31;98584.75;;;34.96
72054;BMP280;59918;51.280;7.950;2023-05-19T11:35:00;98581.88;;;35.32
72054;BMP280;59918;51.280;7.950;2023-05-19T11:37:26;98580.94;;;35.55
72054;BMP280;59918;51.280;7.950;2023-05-19T11:39:52;98579.13;;;35.43
72054;BMP280;59918;51.280;7.950;2023-05-19T11:42:18;98582.72;;;34.39
72054;BMP280;59918;51.280;7.950;2023-05-19T11:44:44;98584.63;;;34.65
72054;BMP280;59918;51.280;7.950;2023-05-19T11:47:15;98580.78;;;35.48
72054;BMP280;59918;51.280;7.950;2023-05-19T11:49:46;98577.09;;;36.02
72054;BMP280;59918;51.280;7.950;2023-05-19T11:52:12;98581.81;;;36.08
72054;BMP280;59918;51.280;7.950;2023-05-19T11:54:38;98581.34;;;36.37
72054;BMP280;59918;51.280;7.950;2023-05-19T11:57:03;98575.38;;;36.62
72054;BMP280;59918;51.280;7.950;2023-05-19T11:59:30;98583.16;;;36.51
72054;BMP280;59918;51.280;7.950;2023-05-19T12:01:55;98570.69;;;36.40
72054;BMP280;59918;51.280;7.950;2023-05-19T12:04:26;98561.25;;;36.84
72054;BMP280;59918;51.280;7.950;2023-05-19T12:06:52;98565.78;;;37.21
72054;BMP280;59918;51.280;7.950;2023-05-19T12:09:18;98570.19;;;37.32
72054;BMP280;59918;51.280;7.950;2023-05-19T12:11:53;98569.94;;;37.18
72054;BMP280;59918;51.280;7.950;2023-05-19T12:14:18;98558.25;;;37.07
72054;BMP280;59918;51.280;7.950;2023-05-19T12:16:44;98563.13;;;37.24
72054;BMP280;59918;51.280;7.950;2023-05-19T12:19:15;98553.78;;;37.85
72054;BMP280;59918;51.280;7.950;2023-05-19T12:21:40;98557.34;;;38.47
72054;BMP280;59918;51.280;7.950;2023-05-19T12:24:06;98552.44;;;38.52
72054;BMP280;59918;51.280;7.950;2023-05-19T12:26:32;98544.84;;;38.58
72054;BMP280;59918;51.280;7.950;2023-05-19T12:29:04;98545.25;;;38.60
72054;BMP280;59918;51.280;7.950;2023-05-19T12:31:29;98537.94;;;38.93
72054;BMP280;59918;51.280;7.950;2023-05-19T12:33:55;98534.16;;;39.40
72054;BMP280;59918;51.280;7.950;2023-05-19T12:36:24;98527.50;;;39.74
72054;BMP280;59918;51.280;7.950;2023-05-19T12:38:56;98529.25;;;40.02
72054;BMP280;59918;51.280;7.950;2023-05-19T12:41:27;98523.59;;;40.28
72054;BMP280;59918;51.280;7.950;2023-05-19T12:43:54;98533.53;;;40.17
72054;BMP280;59918;51.280;7.950;2023-05-19T12:46:19;98531.69;;;40.35
72054;BMP280;59918;51.280;7.950;2023-05-19T12:48:51;98521.44;;;40.75
72054;BMP280;59918;51.280;7.950;2023-05-19T12:51:17;98519.75;;;40.39
72054;BMP280;59918;51.280;7.950;2023-05-19T12:53:43;98522.06;;;40.41
72054;BMP280;59918;51.280;7.950;2023-05-19T12:56:14;98518.34;;;40.76
72054;BMP280;59918;51.280;7.950;2023-05-19T12:58:40;98506.91;;;41.24
72054;BMP280;59918;51.280;7.950;2023-05-19T13:01:05;98505.31;;;41.58
72054;BMP280;59918;51.280;7.950;2023-05-19T13:03:31;98513.75;;;41.84
72054;BMP280;59918;51.280;7.950;2023-05-19T13:05:56;98515.69;;;41.87
72054;BMP280;59918;51.280;7.950;2023-05-19T13:08:25;98506.72;;;42.17
72054;BMP280;59918;51.280;7.950;2023-05-19T13:10:50;98504.91;;;42.75
72054;BMP280;59918;51.280;7.950;2023-05-19T13:13:16;98505.91;;;42.31
72054;BMP280;59918;51.280;7.950;2023-05-19T13:15:43;98510.53;;;42.30
72054;BMP280;59918;51.280;7.950;2023-05-19T13:18:11;98501.16;;;42.59
72054;BMP280;59918;51.280;7.950;2023-05-19T13:20:38;98498.75;;;42.71
72054;BMP280;59918;51.280;7.950;2023-05-19T13:23:04;98497.66;;;43.19
72054;BMP280;59918;51.280;7.950;2023-05-19T13:25:29;98490.78;;;43.55
72054;BMP280;59918;51.280;7.950;2023-05-19T13:27:55;98496.09;;;43.65
72054;BMP280;59918;51.280;7.950;2023-05-19T13:30:20;98483.22;;;43.36
72054;BMP280;59918;51.280;7.950;2023-05-19T13:32:49;98484.50;;;43.64
72054;BMP280;59918;51.280;7.950;2023-05-19T13:35:14;98479.75;;;44.08
72054;BMP280;59918;51.280;7.950;2023-05-19T13:37:42;98464.13;;;44.49
72054;BMP280;59918;51.280;7.950;2023-05-19T13:40:08;98467.56;;;44.53
72054;BMP280;59918;51.280;7.950;2023-05-19T13:42:39;98466.94;;;44.12
72054;BMP280;59918;51.280;7.950;2023-05-19T13:45:05;98471.50;;;44.19
72054;BMP280;59918;51.280;7.950;2023-05-19T13:47:30;98468.31;;;44.27
72054;BMP280;59918;51.280;7.950;2023-05-19T13:49:56;98474.31;;;44.12
72054;BMP280;59918;51.280;7.950;2023-05-19T13:52:27;98483.03;;;43.93
72054;BMP280;59918;51.280;7.950;2023-05-19T13:54:52;98469.44;;;44.30
72054;BMP280;59918;51.280;7.950;2023-05-19T13:57:18;98469.00;;;44.87
72054;BMP280;59918;51.280;7.950;2023-05-19T13:59:43;98469.25;;;44.96
72054;BMP280;59918;51.280;7.950;2023-05-19T14:02:08;98476.47;;;45.06
72054;BMP280;59918;51.280;7.950;2023-05-19T14:04:37;98468.88;;;45.20
72054;BMP280;59918;51.280;7.950;2023-05-19T14:07:03;98475.81;;;45.66
72054;BMP280;59918;51.280;7.950;2023-05-19T14:09:28;98469.84;;;45.75
72054;BMP280;59918;51.280;7.950;2023-05-19T14:11:53;98476.84;;;45.91
72054;BMP280;59918;51.280;7.950;2023-05-19T14:14:18;98469.94;;;45.68
72054;BMP280;59918;51.280;7.950;2023-05-19T14:16:44;98468.34;;;45.70
72054;BMP280;59918;51.280;7.950;2023-05-19T14:19:12;98460.94;;;45.74
72054;BMP280;59918;51.280;7.950;2023-05-19T14:21:38;98466.88;;;45.66
72054;BMP280;59918;51.280;7.950;2023-05-19T14:24:03;98460.19;;;44.79
72054;BMP280;59918;51.280;7.950;2023-05-19T14:26:28;98457.97;;;44.97
72054;BMP280;59918;51.280;7.950;2023-05-19T14:28:53;98447.34;;;45.10
72054;BMP280;59918;51.280;7.950;2023-05-19T14:31:19;98449.56;;;45.79
72054;BMP280;59918;51.280;7.950;2023-05-19T14:33:44;98453.56;;;45.29
72054;BMP280;59918;51.280;7.950;2023-05-19T14:36:12;98468.06;;;42.98
72054;BMP280;59918;51.280;7.950;2023-05-19T14:38:37;98478.41;;;38.94